Time;durP1;ratioP1;P1;durP2;ratioP2;P2;SDS_P1;SDS_P2;PMS_P1;PMS_P2;Temp;Humidity;BMP_temperature;BMP_pressure;BME280_temperature;BME280_humidity;BME280_pressure;Samples;Min_cycle;Max_cycle;Signal;HPM_P1;HPM_P2
2023/07/17 00:01:02;;;;;;;2.53;2.40;;;20.40;99.90;;;;;;5012094;28;20207;-51
2023/07/17 00:03:28;;;;;;;3.23;2.97;;;20.50;99.90;;;;;;5018801;28;20256;-51
2023/07/17 00:05:57;;;;;;;3.33;3.03;;;20.50;99.90;;;;;;5018053;28;20203;-51
2023/07/17 00:08:26;;;;;;;2.53;2.40;;;20.60;99.90;;;;;;5024586;28;20257;-51
2023/07/17 00:10:53;;;;;;;3.60;2.60;;;20.70;99.90;;;;;;5021555;28;20258;-51
2023/07/17 00:13:20;;;;;;;3.23;3.03;;;20.70;99.90;;;;;;5031414;28;20199;-50
2023/07/17 00:15:47;;;;;;;2.90;2.70;;;20.70;99.90;;;;;;5031647;28;20253;-51
2023/07/17 00:18:14;;;;;;;3.70;3.50;;;20.70;99.90;;;;;;5022535;28;20218;-50
2023/07/17 00:20:41;;;;;;;3.37;3.07;;;20.80;99.90;;;;;;5021370;28;20198;-51
2023/07/17 00:23:08;;;;;;;3.20;3.00;;;20.80;99.90;;;;;;5019938;28;20205;-51
2023/07/17 00:25:37;;;;;;;3.37;3.27;;;20.80;99.90;;;;;;5011824;28;20700;-51
2023/07/17 00:28:04;;;;;;;3.63;3.33;;;20.80;99.90;;;;;;5020527;28;20637;-51
2023/07/17 00:30:31;;;;;;;2.90;2.60;;;20.90;99.90;;;;;;5021175;28;20257;-51
2023/07/17 00:32:58;;;;;;;3.17;2.53;;;20.90;99.90;;;;;;5019546;28;20229;-50
2023/07/17 00:35:25;;;;;;;3.20;3.10;;;20.90;99.90;;;;;;5017230;28;20274;-51
2023/07/17 00:37:51;;;;;;;3.80;3.57;;;20.90;99.90;;;;;;5031359;28;20237;-51
2023/07/17 00:40:18;;;;;;;3.43;3.23;;;20.90;99.90;;;;;;5031541;28;20194;-50
2023/07/17 00:42:47;;;;;;;4.87;3.80;;;20.80;99.90;;;;;;5031089;28;20264;-51
2023/07/17 00:45:14;;;;;;;4.30;4.00;;;20.80;99.90;;;;;;5030267;28;20211;-50
2023/07/17 00:47:44;;;;;;;4.23;3.63;;;20.80;99.90;;;;;;5025246;28;20257;-51
2023/07/17 00:50:11;;;;;;;3.83;3.53;;;20.70;99.90;;;;;;5019183;28;20708;-51
2023/07/17 00:52:42;;;;;;;3.43;3.13;;;20.70;99.90;;;;;;5011356;28;20246;-51
2023/07/17 00:55:10;;;;;;;3.73;3.43;;;20.60;99.90;;;;;;5011543;28;20203;-50
2023/07/17 00:57:37;;;;;;;3.73;3.00;;;20.70;99.90;;;;;;5013005;28;20200;-51
2023/07/17 01:00:09;;;;;;;4.80;3.23;;;20.70;99.90;;;;;;5019746;28;20215;-51
2023/07/17 01:02:40;;;;;;;2.90;2.70;;;20.60;99.90;;;;;;5019783;28;20207;-50
2023/07/17 01:05:08;;;;;;;3.20;3.03;;;20.60;99.90;;;;;;5014838;28;20198;-50
2023/07/17 01:07:37;;;;;;;3.60;3.37;;;20.60;99.90;;;;;;5031017;28;20238;-51
2023/07/17 01:10:05;;;;;;;5.90;3.00;;;20.50;99.90;;;;;;5029870;28;20906;-50
2023/07/17 01:12:35;;;;;;;2.67;2.57;;;20.60;99.90;;;;;;5021619;28;20657;-50
2023/07/17 01:15:02;;;;;;;2.67;2.57;;;20.60;99.90;;;;;;5011146;28;20203;-50
2023/07/17 01:17:30;;;;;;;2.90;2.70;;;20.50;99.90;;;;;;5021546;28;20589;-51
2023/07/17 01:19:57;;;;;;;3.17;2.80;;;20.50;99.90;;;;;;5022487;28;20219;-51
2023/07/17 01:22:28;;;;;;;4.63;3.07;;;20.50;99.90;;;;;;5029987;28;20646;-51
2023/07/17 01:24:57;;;;;;;3.00;2.80;;;20.50;99.90;;;;;;5018154;28;20199;-51
2023/07/17 01:27:24;;;;;;;3.20;3.00;;;20.50;99.90;;;;;;5030898;28;20276;-51
2023/07/17 01:29:51;;;;;;;3.00;2.90;;;20.60;99.90;;;;;;5028256;28;20646;-51
2023/07/17 01:32:20;;;;;;;2.50;2.40;;;20.60;99.90;;;;;;5019124;28;20195;-51
2023/07/17 01:34:47;;;;;;;4.57;3.03;;;20.50;99.90;;;;;;5014479;28;20199;-50
2023/07/17 01:37:14;;;;;;;3.67;2.87;;;20.50;99.90;;;;;;5029401;28;20284;-51
2023/07/17 01:39:41;;;;;;;3.47;3.23;;;20.40;99.90;;;;;;5030994;28;20561;-51
2023/07/17 01:42:09;;;;;;;5.57;2.93;;;20.40;99.90;;;;;;5018176;28;20214;-51
2023/07/17 01:44:36;;;;;;;2.97;2.87;;;20.50;99.90;;;;;;5022743;28;20273;-51
2023/07/17 01:47:04;;;;;;;2.87;2.77;;;20.50;99.90;;;;;;5022560;28;20732;-51
2023/07/17 01:49:32;;;;;;;3.47;3.17;;;20.60;99.90;;;;;;5030510;28;20960;-51
2023/07/17 01:51:59;;;;;;;4.30;4.00;;;20.60;99.90;;;;;;5024243;28;20199;-50
2023/07/17 01:54:26;;;;;;;3.67;3.47;;;20.60;99.90;;;;;;5033410;28;20195;-51
2023/07/17 01:56:53;;;;;;;3.10;3.00;;;20.60;99.90;;;;;;5034432;28;20225;-51
2023/07/17 01:59:21;;;;;;;3.83;3.50;;;20.70;99.90;;;;;;5024992;28;20214;-51
2023/07/17 02:01:48;;;;;;;3.67;3.40;;;20.70;99.90;;;;;;5026934;28;20256;-50
2023/07/17 02:04:15;;;;;;;3.20;3.00;;;20.70;99.90;;;;;;5025494;28;20664;-51
2023/07/17 02:06:42;;;;;;;3.43;3.23;;;20.60;99.90;;;;;;5022985;28;20206;-51
2023/07/17 02:09:09;;;;;;;4.37;3.30;;;20.80;99.90;;;;;;5033570;28;20226;-51
2023/07/17 02:11:36;;;;;;;6.37;3.83;;;20.80;99.90;;;;;;5031999;28;20203;-50
2023/07/17 02:14:03;;;;;;;3.23;2.83;;;20.70;99.90;;;;;;5031670;28;20198;-50
2023/07/17 02:16:32;;;;;;;3.57;2.90;;;20.80;99.90;;;;;;5022514;28;20210;-50
2023/07/17 02:18:59;;;;;;;3.37;3.13;;;20.80;99.90;;;;;;5021983;28;20211;-50
2023/07/17 02:21:26;;;;;;;3.70;3.50;;;20.80;99.90;;;;;;5013930;28;20206;-50
2023/07/17 02:23:53;;;;;;;3.73;3.53;;;20.80;99.90;;;;;;5025601;28;20614;-50
2023/07/17 02:26:20;;;;;;;4.47;4.17;;;20.80;99.90;;;;;;5024551;28;20336;-51
2023/07/17 02:28:47;;;;;;;4.40;4.10;;;20.70;99.90;;;;;;5025693;28;20280;-51
2023/07/17 02:31:14;;;;;;;3.77;3.57;;;20.70;99.90;;;;;;5026611;28;20204;-50
2023/07/17 02:33:42;;;;;;;4.43;4.17;;;20.70;99.90;;;;;;5021475;28;20199;-51
2023/07/17 02:36:09;;;;;;;4.40;4.17;;;20.50;99.90;;;;;;5013504;28;20239;-50
2023/07/17 02:38:36;;;;;;;4.10;3.80;;;20.50;99.90;;;;;;5020369;28;20610;-50
2023/07/17 02:41:03;;;;;;;3.73;3.63;;;20.50;99.90;;;;;;5024375;28;20202;-50
2023/07/17 02:43:30;;;;;;;3.80;3.50;;;20.50;99.90;;;;;;5024751;28;20202;-50
2023/07/17 02:45:57;;;;;;;3.33;3.13;;;20.40;99.90;;;;;;5033227;28;20248;-50
2023/07/17 02:48:24;;;;;;;4.30;3.90;;;20.40;99.90;;;;;;5030199;28;20222;-50
2023/07/17 02:50:52;;;;;;;6.50;4.47;;;20.40;99.90;;;;;;5030779;28;20303;-50
2023/07/17 02:53:19;;;;;;;4.80;4.37;;;20.40;99.90;;;;;;5021068;28;20602;-50
2023/07/17 02:55:46;;;;;;;7.10;3.67;;;20.20;99.90;;;;;;5017503;28;20199;-50
2023/07/17 02:58:17;;;;;;;4.47;4.17;;;20.20;99.90;;;;;;5019904;28;20578;-50
2023/07/17 03:00:44;;;;;;;4.83;3.73;;;20.20;99.90;;;;;;5021465;28;20191;-50
2023/07/17 03:03:11;;;;;;;4.60;4.30;;;20.00;99.90;;;;;;5015837;28;20653;-50
2023/07/17 03:05:38;;;;;;;4.20;3.80;;;20.00;99.90;;;;;;5021487;28;20195;-50
2023/07/17 03:08:06;;;;;;;4.30;3.67;;;20.00;99.90;;;;;;5013147;28;20252;-50
2023/07/17 03:10:33;;;;;;;3.97;3.63;;;20.00;99.90;;;;;;5023933;28;20214;-50
2023/07/17 03:13:00;;;;;;;4.47;4.07;;;20.00;99.90;;;;;;5029877;28;20257;-50
2023/07/17 03:15:27;;;;;;;4.70;3.53;;;19.90;99.90;;;;;;5017424;28;20199;-50
2023/07/17 03:17:54;;;;;;;3.97;3.53;;;19.90;99.90;;;;;;5022475;28;20320;-51
2023/07/17 03:20:21;;;;;;;4.53;3.97;;;19.90;99.90;;;;;;5012988;28;20203;-51
2023/07/17 03:22:49;;;;;;;4.83;4.37;;;19.80;99.90;;;;;;5017972;28;20252;-50
2023/07/17 03:25:17;;;;;;;4.80;4.03;;;19.80;99.90;;;;;;5024642;28;20653;-50
2023/07/17 03:27:44;;;;;;;5.10;4.60;;;19.80;99.90;;;;;;5022008;28;20575;-50
2023/07/17 03:30:12;;;;;;;4.23;3.93;;;19.70;99.90;;;;;;5020703;28;20258;-51
2023/07/17 03:32:39;;;;;;;4.50;4.17;;;19.70;99.90;;;;;;5012396;28;20925;-50
2023/07/17 03:35:06;;;;;;;5.13;4.83;;;19.60;99.90;;;;;;5027133;28;20199;-50
2023/07/17 03:37:33;;;;;;;6.13;5.53;;;19.70;99.90;;;;;;5032491;28;20198;-51
2023/07/17 03:40:00;;;;;;;4.83;4.40;;;19.70;99.90;;;;;;5022260;28;20224;-50
2023/07/17 03:42:29;;;;;;;4.67;4.30;;;19.80;99.90;;;;;;5024914;28;20254;-50
2023/07/17 03:44:55;;;;;;;4.27;4.03;;;19.80;99.90;;;;;;5021309;28;20285;-51
2023/07/17 03:47:22;;;;;;;5.23;4.73;;;19.80;99.90;;;;;;5018435;28;20203;-51
2023/07/17 03:49:49;;;;;;;5.23;4.93;;;19.70;99.90;;;;;;5012533;28;20725;-50
2023/07/17 03:52:16;;;;;;;5.10;4.47;;;19.60;99.90;;;;;;5012262;28;20203;-50
2023/07/17 03:54:43;;;;;;;5.20;4.70;;;19.50;99.90;;;;;;5026906;28;20577;-50
2023/07/17 03:57:10;;;;;;;5.93;4.87;;;19.40;99.90;;;;;;5027613;28;20199;-51
2023/07/17 03:59:50;;;;;;;4.73;4.33;;;19.40;99.90;;;;;;5016937;28;20284;-50
2023/07/17 04:02:17;;;;;;;4.80;4.30;;;19.40;99.90;;;;;;5019995;28;20218;-50
2023/07/17 04:04:45;;;;;;;4.40;4.10;;;19.40;99.90;;;;;;5012073;28;20199;-50
2023/07/17 04:07:12;;;;;;;5.37;3.93;;;19.40;99.90;;;;;;5019470;28;20203;-51
2023/07/17 04:09:39;;;;;;;7.20;6.60;;;19.50;99.90;;;;;;5022483;28;20582;-51
2023/07/17 04:12:07;;;;;;;5.50;5.00;;;19.40;99.90;;;;;;5031440;28;20234;-51
2023/07/17 04:14:34;;;;;;;6.23;4.30;;;19.40;99.90;;;;;;5031734;28;20260;-50
2023/07/17 04:17:03;;;;;;;5.30;4.90;;;19.40;99.90;;;;;;5026234;28;20202;-50
2023/07/17 04:19:31;;;;;;;4.93;4.50;;;19.40;99.90;;;;;;5026574;28;20218;-50
2023/07/17 04:21:57;;;;;;;4.43;4.13;;;19.50;99.90;;;;;;5031703;28;20272;-50
2023/07/17 04:24:25;;;;;;;5.20;4.20;;;19.50;99.90;;;;;;5021941;28;20276;-50
2023/07/17 04:26:54;;;;;;;4.40;4.00;;;19.50;99.90;;;;;;5013867;28;20248;-51
2023/07/17 04:29:22;;;;;;;4.13;3.93;;;19.50;99.90;;;;;;5017742;28;20230;-51
2023/07/17 04:31:49;;;;;;;4.23;3.93;;;19.60;99.90;;;;;;5023755;28;20198;-51
2023/07/17 04:34:18;;;;;;;4.87;4.47;;;19.60;99.90;;;;;;5011798;28;20293;-51
2023/07/17 04:36:46;;;;;;;7.37;3.70;;;19.60;99.90;;;;;;5022671;28;20256;-51
2023/07/17 04:39:13;;;;;;;4.83;4.57;;;19.60;99.90;;;;;;5019749;28;20316;-51
2023/07/17 04:41:41;;;;;;;4.20;3.93;;;19.60;99.90;;;;;;5027592;28;20249;-50
2023/07/17 04:44:08;;;;;;;4.20;3.90;;;19.60;99.90;;;;;;5031441;28;20202;-51
2023/07/17 04:46:35;;;;;;;5.30;4.80;;;19.70;99.90;;;;;;5031456;28;20238;-51
2023/07/17 04:49:02;;;;;;;4.10;3.87;;;19.70;99.90;;;;;;5022835;28;20262;-51
2023/07/17 04:51:31;;;;;;;5.27;4.87;;;19.70;99.90;;;;;;5023090;28;20615;-51
2023/07/17 04:53:58;;;;;;;5.33;4.87;;;19.70;99.90;;;;;;5012547;28;20200;-50
2023/07/17 04:56:25;;;;;;;5.17;4.60;;;19.80;99.90;;;;;;5011631;28;20203;-50
2023/07/17 04:58:51;;;;;;;4.83;4.53;;;19.90;99.90;;;;;;5016882;28;20211;-51
2023/07/17 05:01:18;;;;;;;5.70;5.30;;;19.90;99.90;;;;;;5031388;28;20195;-51
2023/07/17 05:03:45;;;;;;;4.93;4.43;;;19.80;99.90;;;;;;5022242;28;20684;-51
2023/07/17 05:06:12;;;;;;;4.73;4.43;;;19.80;99.90;;;;;;5026274;28;20198;-50
2023/07/17 05:08:40;;;;;;;5.90;5.40;;;19.90;99.90;;;;;;5061769;22;20233;-56
2023/07/17 05:11:08;;;;;;;5.47;4.97;;;19.80;99.90;;;;;;5054239;28;20711;-56
2023/07/17 05:13:34;;;;;;;5.23;4.77;;;19.80;99.90;;;;;;5052677;28;20597;-56
2023/07/17 05:16:02;;;;;;;5.10;4.80;;;19.90;99.90;;;;;;5043758;28;20633;-56
2023/07/17 05:18:29;;;;;;;5.97;5.50;;;19.90;99.90;;;;;;5049931;28;20309;-56
2023/07/17 05:20:56;;;;;;;5.00;4.60;;;20.00;99.90;;;;;;5043925;28;20194;-56
2023/07/17 05:23:23;;;;;;;4.23;4.03;;;20.00;99.90;;;;;;5051882;28;20288;-55
2023/07/17 05:25:56;;;;;;;5.63;5.23;;;20.00;99.90;;;;;;5054026;28;20856;-56
2023/07/17 05:28:22;;;;;;;5.03;4.63;;;20.00;99.90;;;;;;5053767;28;20291;-57
2023/07/17 05:30:52;;;;;;;4.67;4.43;;;20.00;99.90;;;;;;5053880;28;20217;-55
2023/07/17 05:33:18;;;;;;;5.37;5.10;;;20.10;99.90;;;;;;5043653;28;20198;-56
2023/07/17 05:35:45;;;;;;;6.30;5.63;;;20.10;99.90;;;;;;5053883;28;20251;-56
2023/07/17 05:38:12;;;;;;;6.27;5.90;;;20.20;99.90;;;;;;5053679;28;20247;-55
2023/07/17 05:40:40;;;;;;;6.87;4.97;;;20.20;99.90;;;;;;5053573;28;20259;-55
2023/07/17 05:43:09;;;;;;;5.27;4.73;;;20.20;99.90;;;;;;5053480;28;20794;-55
2023/07/17 05:45:36;;;;;;;5.67;5.37;;;20.30;99.90;;;;;;5053553;28;20201;-56
2023/07/17 05:48:03;;;;;;;4.20;3.80;;;20.30;99.90;;;;;;5044388;28;20263;-55
2023/07/17 05:50:30;;;;;;;5.60;4.63;;;20.30;99.90;;;;;;5038400;28;20826;-55
2023/07/17 05:52:57;;;;;;;8.07;5.27;;;20.30;99.90;;;;;;5033346;28;20206;-56
2023/07/17 05:55:24;;;;;;;4.80;4.43;;;20.40;99.90;;;;;;5033716;28;20642;-55
2023/07/17 05:57:51;;;;;;;6.00;5.50;;;20.50;99.90;;;;;;5046097;28;20206;-56
2023/07/17 06:00:20;;;;;;;6.47;6.00;;;20.70;99.90;;;;;;5053160;28;20788;-55
2023/07/17 06:02:47;;;;;;;4.47;4.20;;;20.90;99.90;;;;;;5044063;28;20237;-57
2023/07/17 06:05:14;;;;;;;5.53;5.17;;;21.00;99.90;;;;;;5052707;28;20279;-55
2023/07/17 06:07:45;;;;;;;5.87;5.37;;;21.10;99.90;;;;;;5044102;28;20206;-56
2023/07/17 06:10:12;;;;;;;4.37;4.17;;;21.20;99.90;;;;;;5044092;28;20234;-57
2023/07/17 06:12:42;;;;;;;6.30;5.37;;;21.50;99.90;;;;;;5037622;28;20198;-55
2023/07/17 06:15:11;;;;;;;6.47;5.90;;;21.60;99.90;;;;;;5047966;28;20580;-56
2023/07/17 06:17:39;;;;;;;6.30;5.60;;;21.70;99.90;;;;;;5045484;28;20251;-55
2023/07/17 06:20:08;;;;;;;5.43;5.07;;;21.80;99.90;;;;;;5044224;28;20284;-56
2023/07/17 06:22:35;;;;;;;5.77;4.97;;;22.70;99.90;;;;;;5051777;28;20684;-55
2023/07/17 06:25:02;;;;;;;4.40;4.10;;;24.00;99.90;;;;;;5052931;28;20205;-55
2023/07/17 06:27:29;;;;;;;4.30;4.10;;;25.00;99.90;;;;;;5052824;28;20198;-55
2023/07/17 06:29:56;;;;;;;4.83;4.60;;;25.50;99.90;;;;;;5037194;28;20284;-57
2023/07/17 06:32:24;;;;;;;4.13;3.70;;;26.50;99.90;;;;;;5047135;28;20681;-56
2023/07/17 06:34:53;;;;;;;4.63;3.80;;;27.10;99.90;;;;;;5047599;28;20660;-56
2023/07/17 06:37:20;;;;;;;4.20;3.90;;;27.90;99.90;;;;;;5041094;28;20199;-56
2023/07/17 06:39:46;;;;;;;3.75;3.55;;;27.50;99.90;;;;;;5037596;28;20283;-57
2023/07/17 06:42:13;;;;;;;3.93;3.17;;;27.30;99.90;;;;;;5050136;28;20194;-56
2023/07/17 06:44:40;;;;;;;4.67;3.00;;;26.60;99.90;;;;;;5046747;28;20194;-55
2023/07/17 06:47:07;;;;;;;3.17;2.95;;;26.20;99.90;;;;;;5042760;28;20568;-55
2023/07/17 06:49:34;;;;;;;6.10;3.57;;;25.40;99.90;;;;;;5035604;28;20222;-56
2023/07/17 06:52:03;;;;;;;2.50;2.40;;;25.10;99.90;;;;;;5042346;28;20222;-56
2023/07/17 06:54:30;;;;;;;3.00;2.70;;;24.80;99.90;;;;;;5046942;28;20548;-56
2023/07/17 06:56:57;;;;;;;3.63;3.20;;;25.60;99.90;;;;;;5052528;28;20198;-57
2023/07/17 06:59:26;;;;;;;3.17;3.07;;;26.60;99.90;;;;;;5051387;28;20226;-56
2023/07/17 07:01:54;;;;;;;3.75;3.53;;;27.50;99.90;;;;;;5042522;28;20267;-56
2023/07/17 07:04:21;;;;;;;3.28;3.08;;;28.90;99.90;;;;;;5041770;28;20255;-56
2023/07/17 07:06:48;;;;;;;2.42;2.25;;;29.60;99.90;;;;;;5041078;28;20242;-56
2023/07/17 07:09:16;;;;;;;2.85;2.50;;;30.40;99.90;;;;;;5050046;28;20221;-56
2023/07/17 07:11:43;;;;;;;2.67;2.53;;;30.50;99.90;;;;;;5035054;28;20218;-55
2023/07/17 07:14:10;;;;;;;2.67;2.35;;;31.10;99.90;;;;;;5039340;28;20198;-57
2023/07/17 07:16:37;;;;;;;2.58;2.47;;;30.80;99.90;;;;;;5043620;28;20334;-56
2023/07/17 07:19:04;;;;;;;2.13;2.03;;;31.20;99.90;;;;;;5032340;28;20284;-57
2023/07/17 07:21:31;;;;;;;2.17;2.08;;;30.70;99.90;;;;;;5043641;28;20194;-56
2023/07/17 07:23:58;;;;;;;3.15;2.95;;;30.20;99.90;;;;;;5041065;28;20201;-56
2023/07/17 07:26:27;;;;;;;3.97;2.90;;;30.70;99.90;;;;;;5031916;28;20723;-56
2023/07/17 07:28:54;;;;;;;3.38;3.10;;;31.20;99.90;;;;;;5036027;28;20217;-57
2023/07/17 07:31:21;;;;;;;2.72;2.53;;;31.10;99.90;;;;;;5038356;28;20292;-56
2023/07/17 07:33:48;;;;;;;2.80;2.65;;;31.20;99.90;;;;;;5039592;28;20195;-57
2023/07/17 07:36:15;;;;;;;2.90;2.67;;;31.20;99.90;;;;;;5031766;28;20261;-57
2023/07/17 07:38:42;;;;;;;3.00;1.95;;;31.50;99.90;;;;;;5034826;28;20279;-56
2023/07/17 07:41:09;;;;;;;3.38;2.65;;;31.90;99.90;;;;;;5046965;28;20729;-56
2023/07/17 07:43:37;;;;;;;3.42;2.75;;;31.40;99.90;;;;;;5044178;28;20255;-57
2023/07/17 07:46:05;;;;;;;3.13;2.72;;;32.00;99.90;;;;;;5047003;28;20209;-57
2023/07/17 07:48:31;;;;;;;3.25;2.90;;;32.50;99.90;;;;;;5039672;28;20687;-57
2023/07/17 07:50:58;;;;;;;5.03;2.65;;;32.50;99.90;;;;;;5044795;28;20259;-56
2023/07/17 07:53:25;;;;;;;3.83;3.45;;;33.10;99.90;;;;;;5032779;28;20744;-56
2023/07/17 07:55:52;;;;;;;3.97;2.80;;;33.40;99.90;;;;;;5041580;28;20251;-56
2023/07/17 07:58:19;;;;;;;3.20;2.63;;;33.50;99.90;;;;;;5045897;28;20618;-57
2023/07/17 08:00:47;;;;;;;2.40;2.30;;;33.70;99.90;;;;;;5041370;28;20194;-56
2023/07/17 08:03:15;;;;;;;1.98;1.85;;;33.50;99.90;;;;;;5030992;28;20255;-56
2023/07/17 08:05:42;;;;;;;2.92;2.53;;;32.50;99.90;;;;;;5031178;28;20202;-57
2023/07/17 08:08:09;;;;;;;2.85;2.63;;;32.80;99.90;;;;;;5031167;28;20202;-56
2023/07/17 08:10:37;;;;;;;3.30;2.25;;;32.50;99.90;;;;;;5040524;28;20201;-56
2023/07/17 08:13:04;;;;;;;3.15;1.58;;;32.80;99.90;;;;;;5037777;28;20261;-58
2023/07/17 08:15:31;;;;;;;2.13;2.03;;;32.10;99.90;;;;;;5040734;28;20225;-55
2023/07/17 08:18:00;;;;;;;2.47;2.27;;;31.90;99.90;;;;;;5030357;28;20645;-55
2023/07/17 08:20:27;;;;;;;2.45;2.35;;;32.10;99.90;;;;;;5038610;28;20270;-65
2023/07/17 08:22:55;;;;;;;2.53;2.17;;;32.50;99.90;;;;;;5032420;28;20194;-64
2023/07/17 08:25:23;;;;;;;2.35;1.58;;;32.70;99.90;;;;;;5030571;28;20215;-65
2023/07/17 08:27:51;;;;;;;3.15;1.90;;;31.90;99.90;;;;;;5045512;28;20228;-64
2023/07/17 08:30:18;;;;;;;2.70;1.88;;;30.60;99.90;;;;;;5044593;28;20222;-64
2023/07/17 08:32:45;;;;;;;3.20;2.95;;;30.20;99.90;;;;;;5049110;28;20334;-63
2023/07/17 08:35:14;;;;;;;4.05;2.17;;;29.50;99.90;;;;;;5042568;28;20199;-66
2023/07/17 08:37:42;;;;;;;2.20;1.80;;;29.70;99.90;;;;;;5038944;28;20198;-65
2023/07/17 08:40:11;;;;;;;2.17;2.05;;;30.10;99.90;;;;;;5048044;28;20222;-65
2023/07/17 08:42:44;;;;;;;2.65;2.10;;;31.10;99.90;;;;;;5051102;28;20583;-64
2023/07/17 08:45:13;;;;;;;4.00;2.38;;;31.50;99.90;;;;;;5042222;28;20241;-64
2023/07/17 08:47:40;;;;;;;2.38;2.17;;;31.60;99.90;;;;;;5046436;28;20202;-62
2023/07/17 08:50:08;;;;;;;2.05;1.80;;;31.20;99.90;;;;;;5048194;28;20222;-66
2023/07/17 08:52:36;;;;;;;2.70;2.58;;;31.00;99.90;;;;;;5049260;28;20246;-57
2023/07/17 08:55:04;;;;;;;2.78;2.20;;;31.90;99.90;;;;;;5043527;28;20202;-56
2023/07/17 08:57:33;;;;;;;3.50;2.63;;;32.20;99.90;;;;;;5045609;28;20672;-57
2023/07/17 09:00:01;;;;;;;9.38;2.25;;;31.30;99.90;;;;;;5045218;28;20221;-56
2023/07/17 09:02:28;;;;;;;1.83;1.73;;;30.90;99.90;;;;;;5047320;28;20199;-56
2023/07/17 09:04:55;;;;;;;2.10;2.00;;;30.80;99.90;;;;;;5043304;28;20329;-57
2023/07/17 09:07:22;;;;;;;2.13;2.03;;;31.30;99.90;;;;;;5044791;28;20616;-65
2023/07/17 09:10:15;;;;;;;4.47;2.30;;;31.70;99.90;;;;;;5044975;28;20287;-66
2023/07/17 09:12:43;;;;;;;1.95;1.85;;;32.20;99.90;;;;;;5046604;28;20704;-60
2023/07/17 09:15:15;;;;;;;3.47;2.13;;;32.90;99.90;;;;;;5046154;28;20204;-65
2023/07/17 09:17:42;;;;;;;2.92;2.28;;;32.70;99.90;;;;;;5042551;28;20212;-68
2023/07/17 09:20:11;;;;;;;2.33;2.22;;;32.40;99.90;;;;;;5042987;28;20229;-67
2023/07/17 09:22:39;;;;;;;2.20;2.03;;;32.20;99.90;;;;;;5044595;28;20638;-66
2023/07/17 09:25:09;;;;;;;2.88;2.40;;;32.80;99.90;;;;;;5053819;28;20255;-67
2023/07/17 09:27:44;;;;;;;3.33;2.00;;;32.90;99.80;;;;;;5042738;28;20202;-69
2023/07/17 09:30:13;;;;;;;2.50;2.30;;;33.20;99.90;;;;;;5041421;28;20325;-68
2023/07/17 09:32:43;;;;;;;1.58;1.58;;;32.80;99.90;;;;;;5042024;28;20246;-66
2023/07/17 09:35:12;;;;;;;2.03;1.92;;;32.90;99.90;;;;;;5045227;28;20197;-66
2023/07/17 09:37:43;;;;;;;4.32;2.42;;;32.70;99.90;;;;;;5054578;28;20236;-66
2023/07/17 09:40:14;;;;;;;2.40;2.17;;;32.80;99.90;;;;;;5044865;28;20228;-65
2023/07/17 09:42:45;;;;;;;2.67;2.47;;;32.70;99.90;;;;;;5045312;28;20197;-66
2023/07/17 09:45:12;;;;;;;2.95;2.75;;;33.40;98.90;;;;;;5053778;28;20201;-64
2023/07/17 09:47:42;;;;;;;2.95;2.55;;;33.80;98.80;;;;;;5052009;28;20213;-70
2023/07/17 09:50:13;;;;;;;3.10;2.63;;;33.40;99.40;;;;;;5049791;28;20597;-66
2023/07/17 09:52:46;;;;;;;4.55;2.33;;;32.80;99.10;;;;;;5053206;28;20217;-64
2023/07/17 09:55:15;;;;;;;2.53;2.30;;;32.10;99.90;;;;;;5043135;28;20726;-68
2023/07/17 09:57:46;;;;;;;4.20;2.60;;;31.90;99.90;;;;;;5052664;28;20225;-66
2023/07/17 10:00:18;;;;;;;4.47;2.80;;;32.10;99.90;;;;;;5041661;28;20218;-64
2023/07/17 10:02:53;;;;;;;2.88;2.70;;;32.50;99.20;;;;;;5033413;28;20198;-65
2023/07/17 10:05:21;;;;;;;1.85;1.75;;;32.70;98.80;;;;;;5033337;28;20201;-65
2023/07/17 10:07:50;;;;;;;2.63;2.53;;;33.20;99.90;;;;;;5036771;28;20576;-57
2023/07/17 10:10:19;;;;;;;3.40;3.10;;;32.50;99.90;;;;;;5041522;28;20230;-70
2023/07/17 10:12:48;;;;;;;3.13;2.47;;;31.90;99.90;;;;;;5045352;28;20233;-70
2023/07/17 10:15:15;;;;;;;3.28;2.65;;;31.60;99.90;;;;;;5053317;28;20687;-69
2023/07/17 10:17:56;;;;;;;1.98;1.98;;;31.80;99.90;;;;;;5051952;28;20264;-62
2023/07/17 10:20:23;;;;;;;3.28;2.40;;;31.50;99.90;;;;;;5041111;28;20221;-61
2023/07/17 10:22:50;;;;;;;3.75;2.03;;;31.00;99.90;;;;;;5032807;28;20201;-61
2023/07/17 10:25:27;;;;;;;2.40;2.20;;;30.80;99.90;;;;;;5032808;28;20206;-64
2023/07/17 10:27:58;;;;;;;4.20;2.60;;;31.00;99.90;;;;;;5033955;28;20615;-63
2023/07/17 10:30:28;;;;;;;2.22;2.00;;;30.70;99.90;;;;;;5041843;28;20296;-65
2023/07/17 10:33:13;;;;;;;2.85;2.55;;;31.20;99.90;;;;;;5052653;28;20263;-59
2023/07/17 10:35:49;;;;;;;2.55;2.35;;;31.00;99.90;;;;;;5052663;28;20721;-58
2023/07/17 10:38:17;;;;;;;3.03;2.92;;;30.60;99.90;;;;;;5047686;28;20198;-57
2023/07/17 10:40:46;;;;;;;3.33;2.95;;;30.60;99.90;;;;;;5040347;28;20199;-58
2023/07/17 10:43:18;;;;;;;2.72;2.47;;;30.30;99.90;;;;;;5039704;28;20772;-59
2023/07/17 10:45:46;;;;;;;2.63;2.45;;;31.10;99.30;;;;;;5036271;28;20209;-56
2023/07/17 10:48:14;;;;;;;5.63;2.67;;;31.80;97.50;;;;;;5051464;28;20260;-57
2023/07/17 10:50:48;;;;;;;3.67;3.38;;;31.80;98.50;;;;;;5044336;28;20573;-57
2023/07/17 10:53:15;;;;;;;3.97;2.75;;;31.10;99.40;;;;;;5038515;28;20227;-65
2023/07/17 10:55:43;;;;;;;6.28;3.05;;;31.00;99.90;;;;;;5035966;28;20281;-65
2023/07/17 10:58:18;;;;;;;3.15;2.53;;;31.00;99.90;;;;;;5036180;28;20225;-65
2023/07/17 11:00:45;;;;;;;2.05;1.95;;;30.80;99.90;;;;;;5043417;28;20212;-65
2023/07/17 11:03:16;;;;;;;1.98;1.88;;;30.20;99.90;;;;;;5038961;28;20199;-73
2023/07/17 11:05:45;;;;;;;2.70;2.13;;;29.80;99.90;;;;;;5040815;28;20201;-71
2023/07/17 11:08:13;;;;;;;3.38;2.40;;;29.70;99.90;;;;;;5051149;28;20202;-68
2023/07/17 11:10:42;;;;;;;4.40;2.65;;;29.10;99.90;;;;;;5068435;22;20226;-57
2023/07/17 11:13:14;;;;;;;3.03;2.83;;;28.90;99.90;;;;;;5031769;28;20317;-57
2023/07/17 11:15:44;;;;;;;6.13;3.35;;;28.70;99.90;;;;;;5031929;28;20202;-57
2023/07/17 11:18:11;;;;;;;3.58;3.38;;;28.50;99.90;;;;;;5034790;28;20606;-58
2023/07/17 11:20:39;;;;;;;3.35;3.05;;;27.60;99.90;;;;;;5044659;28;20221;-58
2023/07/17 11:23:10;;;;;;;2.97;2.83;;;27.30;99.90;;;;;;5031985;28;20738;-57
2023/07/17 11:25:38;;;;;;;3.80;2.15;;;27.00;99.90;;;;;;5032367;28;20202;-57
2023/07/17 11:28:06;;;;;;;3.30;3.08;;;27.00;99.90;;;;;;5032919;28;20264;-58
2023/07/17 11:30:33;;;;;;;3.65;2.60;;;27.10;99.90;;;;;;5043685;28;20598;-57
2023/07/17 11:33:07;;;;;;;3.87;3.47;;;27.20;99.90;;;;;;5032638;28;20222;-58
2023/07/17 11:35:42;;;;;;;3.45;2.97;;;27.30;99.90;;;;;;5032225;28;20229;-65
2023/07/17 11:38:10;;;;;;;3.03;2.70;;;26.90;99.90;;;;;;5034084;28;20210;-59
2023/07/17 11:40:54;;;;;;;2.88;2.63;;;26.70;99.90;;;;;;5031982;28;20276;-62
2023/07/17 11:43:25;;;;;;;2.97;2.63;;;26.70;99.90;;;;;;5031739;28;20226;-63
2023/07/17 11:45:55;;;;;;;3.38;3.08;;;26.70;99.90;;;;;;5032121;28;20210;-62
2023/07/17 11:48:24;;;;;;;2.53;2.00;;;26.70;99.90;;;;;;5045580;28;20289;-60
2023/07/17 11:50:51;;;;;;;5.18;4.50;;;26.70;99.90;;;;;;5038187;28;20222;-60
2023/07/17 11:53:18;;;;;;;4.80;3.47;;;26.70;99.90;;;;;;5036378;28;20245;-60
2023/07/17 11:55:45;;;;;;;3.77;2.87;;;26.90;99.90;;;;;;5049266;28;20201;-60
2023/07/17 11:58:16;;;;;;;4.60;2.95;;;27.00;99.90;;;;;;5042899;28;20569;-60
2023/07/17 12:00:44;;;;;;;3.05;2.80;;;27.20;99.90;;;;;;5036281;28;20708;-61
2023/07/17 12:03:11;;;;;;;2.65;2.42;;;27.30;99.90;;;;;;5039092;28;20680;-62
2023/07/17 12:05:40;;;;;;;4.32;2.38;;;27.40;99.90;;;;;;5031627;28;20206;-61
2023/07/17 12:08:07;;;;;;;2.88;2.67;;;27.30;99.90;;;;;;5036687;28;20214;-61
2023/07/17 12:10:35;;;;;;;3.42;2.45;;;27.40;99.90;;;;;;5043885;28;20231;-61
2023/07/17 12:13:03;;;;;;;3.63;2.53;;;27.40;99.90;;;;;;5050334;28;20221;-61
2023/07/17 12:15:30;;;;;;;3.88;2.70;;;27.50;99.90;;;;;;5051277;28;20294;-60
2023/07/17 12:17:57;;;;;;;2.67;2.45;;;27.80;99.90;;;;;;5041387;28;20204;-60
2023/07/17 12:20:25;;;;;;;2.78;2.58;;;27.90;99.90;;;;;;5037111;28;20218;-59
2023/07/17 12:22:55;;;;;;;2.60;2.40;;;27.90;99.90;;;;;;5033341;28;20665;-60
2023/07/17 12:25:22;;;;;;;3.60;3.20;;;27.70;99.90;;;;;;5037774;28;20201;-62
2023/07/17 12:27:49;;;;;;;3.88;3.33;;;27.70;99.90;;;;;;5045980;28;20252;-62
2023/07/17 12:30:19;;;;;;;2.67;2.63;;;27.40;99.90;;;;;;5042057;28;20299;-63
2023/07/17 12:32:46;;;;;;;5.30;2.97;;;27.30;99.90;;;;;;5030555;28;20226;-62
2023/07/17 12:35:13;;;;;;;3.78;3.40;;;27.20;99.90;;;;;;5037485;28;20198;-53
2023/07/17 12:37:43;;;;;;;7.20;3.30;;;27.10;99.90;;;;;;5036060;28;20677;-52
2023/07/17 12:40:12;;;;;;;3.60;2.97;;;27.10;99.90;;;;;;5040068;28;20253;-59
2023/07/17 12:42:42;;;;;;;3.05;2.85;;;27.10;99.90;;;;;;5030915;28;20389;-60
2023/07/17 12:45:09;;;;;;;4.85;2.83;;;27.30;99.90;;;;;;5030407;28;20207;-59
2023/07/17 12:47:40;;;;;;;3.47;3.15;;;27.30;99.90;;;;;;5031109;28;20218;-66
2023/07/17 12:50:08;;;;;;;4.05;2.88;;;27.30;99.90;;;;;;5031186;28;20272;-65
2023/07/17 12:52:35;;;;;;;4.03;3.25;;;27.20;99.90;;;;;;5030346;28;20219;-61